CheckWX is a tool to help pilots better visualize weather data.  It is not intended as a substitute for an official pre-flight weather briefing.

22:43:56 UTC

KHIF METAR
Hill AFB Airport
Ogden, Utah, USA
Current

46 mins ago

KHIF 052158Z AUTO 00000KT 10SM BKN100 15/00 A2965 RMK AO2 SLP007 T01470002
Observed
Apr-5 @ 21:58 UTC
Visibility
Flight Rules
VFR
Cloud Levels
  • Broken at 10,000' AGL
Temperature
15°C / 59°F
Dewpoint
C / 32°F
Humidity
36%
Altimeter
29.65" Hg
Pressure
1004.02 hPa
Previous

2 hours ago

KHIF 052058Z AUTO 17004KT 10SM FEW049 FEW075 BKN090 15/01 A2968 RMK AO2 RAE04 SLP018 P0000 60000 T01470005 57014
Observed
Apr-5 @ 20:58 UTC
Wind
  • 170° at 4 KTS
Visibility
Flight Rules
VFR
Cloud Levels
  • Few at 4,900' AGL
  • Few at 7,500' AGL
  • Broken at 9,000' AGL
Temperature
15°C / 59°F
Dewpoint
C / 32°F
Humidity
36%
Altimeter
29.68" Hg
Pressure
1005.12 hPa
Current Rain
0.01"
Previous

3 hours ago

KHIF 052004Z AUTO 26015G21KT 10SM BKN060 OVC095 14/01 A2969 RMK AO2 RAE04 SLP021
Observed
Apr-5 @ 20:04 UTC
Wind
  • 260° at 15 KTS
  • Gusting to 21 KTS
Visibility
Flight Rules
VFR
Cloud Levels
  • Broken at 6,000' AGL
  • Overcast at 9,500' AGL
Temperature
14°C / 57°F
Dewpoint
C / 34°F
Humidity
41%
Altimeter
29.69" Hg
Pressure
1005.42 hPa